createdAt,value
2019-05-16T00:01:33.256Z,96.20
2019-05-16T00:04:03.838Z,96.20
2019-05-16T00:06:34.221Z,96.20
2019-05-16T00:09:07.859Z,96.00
2019-05-16T00:11:38.451Z,96.00
2019-05-16T00:14:09.174Z,96.00
2019-05-16T00:16:39.794Z,95.90
2019-05-16T00:19:10.661Z,95.90
2019-05-16T00:21:41.111Z,95.90
2019-05-16T00:24:11.629Z,96.00
2019-05-16T00:26:42.045Z,96.00
2019-05-16T00:29:12.466Z,96.10
2019-05-16T00:31:43.029Z,96.10
2019-05-16T00:34:13.596Z,96.20
2019-05-16T00:36:44.100Z,96.10
2019-05-16T00:39:14.564Z,96.20
2019-05-16T00:41:45.022Z,96.10
2019-05-16T00:44:15.410Z,96.20
2019-05-16T00:46:45.781Z,96.10
2019-05-16T00:49:18.576Z,96.30
2019-05-16T00:51:49.661Z,96.30
2019-05-16T00:54:20.144Z,96.40
2019-05-16T00:56:51.212Z,96.40
2019-05-16T00:59:22.492Z,96.50
2019-05-16T01:01:53.860Z,96.50
2019-05-16T01:04:24.261Z,96.50
2019-05-16T01:06:54.647Z,96.50
2019-05-16T01:09:25.115Z,96.60
2019-05-16T01:11:57.819Z,96.60
2019-05-16T01:14:28.238Z,96.70
2019-05-16T01:16:58.859Z,96.70
2019-05-16T01:19:29.300Z,96.70
2019-05-16T01:21:59.715Z,96.70
2019-05-16T01:24:30.171Z,96.70
2019-05-16T01:27:00.597Z,96.60
2019-05-16T01:29:31.068Z,96.70
2019-05-16T01:32:01.570Z,96.60
2019-05-16T01:34:32.032Z,96.70
2019-05-16T01:37:02.526Z,96.60
2019-05-16T01:39:33.215Z,96.40
2019-05-16T01:42:22.657Z,96.60
2019-05-16T01:44:53.085Z,96.60
2019-05-16T01:47:28.658Z,96.60
2019-05-16T01:49:58.584Z,96.50
2019-05-16T01:52:29.229Z,96.50
2019-05-16T01:54:59.799Z,96.30
2019-05-16T01:57:30.331Z,96.30
2019-05-16T02:00:00.794Z,96.40
2019-05-16T02:02:31.369Z,96.30
2019-05-16T02:05:02.104Z,96.30
2019-05-16T02:07:32.551Z,96.20
2019-05-16T02:10:03.079Z,96.30
2019-05-16T02:12:33.597Z,96.10
2019-05-16T02:15:04.285Z,96.30
2019-05-16T02:17:34.690Z,96.20
2019-05-16T02:20:05.668Z,96.10
2019-05-16T02:22:38.994Z,95.90
2019-05-16T02:25:11.029Z,95.90
2019-05-16T02:27:41.458Z,96.00
2019-05-16T02:30:12.817Z,96.00
2019-05-16T02:32:43.396Z,95.90
2019-05-16T02:35:13.977Z,96.00
2019-05-16T02:37:44.437Z,96.00
2019-05-16T02:40:21.035Z,96.30
2019-05-16T02:42:51.895Z,96.30
2019-05-16T02:45:24.607Z,96.30
2019-05-16T02:47:55.024Z,96.40
2019-05-16T02:50:25.565Z,96.30
2019-05-16T02:52:56.142Z,96.30
2019-05-16T02:55:26.598Z,96.60
2019-05-16T02:58:00.395Z,96.20
2019-05-16T03:00:41.826Z,96.20
2019-05-16T03:03:11.972Z,96.10
2019-05-16T03:05:43.749Z,96.10
2019-05-16T03:08:14.734Z,96.20
2019-05-16T03:10:45.160Z,96.10
2019-05-16T03:13:17.750Z,96.00
2019-05-16T03:15:51.171Z,96.00
2019-05-16T03:18:25.014Z,96.00
2019-05-16T03:20:55.744Z,96.10
2019-05-16T03:23:26.177Z,95.90
2019-05-16T03:25:56.712Z,96.00
2019-05-16T03:28:27.209Z,96.00
2019-05-16T03:31:04.316Z,95.90
2019-05-16T03:33:40.189Z,96.00
2019-05-16T03:36:04.912Z,96.00
2019-05-16T03:38:35.226Z,96.00
2019-05-16T03:41:05.727Z,96.10
2019-05-16T03:43:36.214Z,96.00
2019-05-16T03:46:06.783Z,96.10
2019-05-16T03:48:40.664Z,96.20
2019-05-16T03:51:11.300Z,96.30
2019-05-16T03:53:43.157Z,96.20
2019-05-16T03:56:13.737Z,96.20
2019-05-16T03:58:44.237Z,96.60
2019-05-16T04:01:14.692Z,96.20
2019-05-16T04:04:04.310Z,96.20
2019-05-16T04:06:34.758Z,96.20
2019-05-16T04:09:07.380Z,96.20
2019-05-16T04:11:37.872Z,96.10
2019-05-16T04:14:10.828Z,96.20
2019-05-16T04:16:41.371Z,96.20
2019-05-16T04:19:12.119Z,96.30
2019-05-16T04:21:42.681Z,96.20
2019-05-16T04:24:13.202Z,96.30
2019-05-16T04:26:43.596Z,96.20
2019-05-16T04:29:13.985Z,96.30
2019-05-16T04:31:44.371Z,96.30
2019-05-16T04:34:14.818Z,96.30
2019-05-16T04:36:45.202Z,96.20
2019-05-16T04:39:15.654Z,96.10
2019-05-16T04:41:46.083Z,96.10
2019-05-16T04:44:16.811Z,96.20
2019-05-16T04:46:50.722Z,96.30
2019-05-16T04:49:24.406Z,96.20
2019-05-16T04:51:54.862Z,96.20
2019-05-16T04:54:25.617Z,96.20
2019-05-16T04:56:56.088Z,96.20
2019-05-16T04:59:26.635Z,96.10
2019-05-16T05:01:57.039Z,96.20
2019-05-16T05:04:30.627Z,96.10
2019-05-16T05:07:00.710Z,96.20
2019-05-16T05:09:31.818Z,96.40
2019-05-16T05:12:04.605Z,96.10
2019-05-16T05:14:35.127Z,96.00
2019-05-16T05:17:05.733Z,96.00
2019-05-16T05:19:36.268Z,95.90
2019-05-16T05:22:06.644Z,95.90
2019-05-16T05:24:36.983Z,96.20
2019-05-16T05:27:07.354Z,96.30
2019-05-16T05:29:39.751Z,96.20
2019-05-16T05:32:14.278Z,96.40
2019-05-16T05:34:41.938Z,96.40
2019-05-16T05:37:12.742Z,96.30
2019-05-16T05:39:43.211Z,96.40
2019-05-16T05:42:13.595Z,96.20
2019-05-16T05:44:44.211Z,96.40
2019-05-16T05:47:14.604Z,96.40
2019-05-16T05:49:45.419Z,96.20
2019-05-16T05:52:15.957Z,96.20
2019-05-16T05:54:46.356Z,96.20
2019-05-16T05:57:35.806Z,96.20
2019-05-16T06:00:07.193Z,96.40
2019-05-16T06:02:39.989Z,96.30
2019-05-16T06:05:10.602Z,96.20
2019-05-16T06:07:41.373Z,96.40
2019-05-16T06:10:11.731Z,96.40
2019-05-16T06:12:42.793Z,96.30
2019-05-16T06:15:14.128Z,96.30
2019-05-16T06:17:44.670Z,96.30
2019-05-16T06:20:15.233Z,96.20
2019-05-16T06:22:45.593Z,96.20
2019-05-16T06:25:16.103Z,96.20
2019-05-16T06:27:46.610Z,96.10
2019-05-16T06:30:17.387Z,96.00
2019-05-16T06:32:50.037Z,96.20
2019-05-16T06:35:21.273Z,96.00
2019-05-16T06:37:52.006Z,96.10
2019-05-16T06:40:22.501Z,96.10
2019-05-16T06:42:52.986Z,96.00
2019-05-16T06:45:23.313Z,96.00
2019-05-16T06:47:53.670Z,96.00
2019-05-16T06:50:24.037Z,95.80
2019-05-16T06:52:54.432Z,95.80
2019-05-16T06:55:24.824Z,95.80
2019-05-16T06:58:14.211Z,95.80
2019-05-16T07:00:44.587Z,95.70
2019-05-16T07:03:15.021Z,95.60
2019-05-16T07:05:45.504Z,95.40
2019-05-16T07:08:15.972Z,95.40
2019-05-16T07:10:46.394Z,95.30
2019-05-16T07:13:16.869Z,95.20
2019-05-16T07:15:49.792Z,95.20
2019-05-16T07:18:20.941Z,95.20
2019-05-16T07:20:51.605Z,95.10
2019-05-16T07:23:22.099Z,95.20
2019-05-16T07:25:52.709Z,95.20
2019-05-16T07:28:23.085Z,95.20
2019-05-16T07:30:53.611Z,95.10
2019-05-16T07:33:24.078Z,95.20
2019-05-16T07:35:54.449Z,95.20
2019-05-16T07:38:24.890Z,95.20
2019-05-16T07:40:55.259Z,95.10
2019-05-16T07:43:25.919Z,95.10
2019-05-16T07:45:56.420Z,94.80
2019-05-16T07:48:26.911Z,94.80
2019-05-16T07:50:57.324Z,94.80
2019-05-16T07:53:30.027Z,94.70
2019-05-16T07:56:00.254Z,94.90
2019-05-16T07:58:31.407Z,94.80
2019-05-16T08:01:07.738Z,94.70
2019-05-16T08:03:34.141Z,94.80
2019-05-16T08:06:04.790Z,94.30
2019-05-16T08:08:35.142Z,94.30
2019-05-16T08:11:05.629Z,94.30
2019-05-16T08:13:36.000Z,94.40
2019-05-16T08:16:06.485Z,94.50
2019-05-16T08:18:36.939Z,94.10
2019-05-16T08:21:07.367Z,94.20
2019-05-16T08:23:37.811Z,94.30
2019-05-16T08:26:10.309Z,94.30
2019-05-16T08:28:41.218Z,94.30
2019-05-16T08:31:12.299Z,94.00
2019-05-16T08:33:42.703Z,93.70
2019-05-16T08:36:13.098Z,93.90
2019-05-16T08:38:43.900Z,93.90
2019-05-16T08:41:17.239Z,93.90
2019-05-16T08:43:46.520Z,94.00
2019-05-16T08:46:16.912Z,93.80
2019-05-16T08:48:48.037Z,93.80
2019-05-16T08:51:21.998Z,93.80
2019-05-16T08:53:50.693Z,93.80
2019-05-16T08:56:22.510Z,94.20
2019-05-16T08:58:54.182Z,93.80
2019-05-16T09:01:24.739Z,93.60
2019-05-16T09:03:55.155Z,93.50
2019-05-16T09:06:25.579Z,93.40
2019-05-16T09:09:02.730Z,93.30
2019-05-16T09:11:38.974Z,93.40
2019-05-16T09:14:00.259Z,93.40
2019-05-16T09:16:30.637Z,93.40
2019-05-16T09:19:00.990Z,93.60
2019-05-16T09:21:31.347Z,93.50
2019-05-16T09:24:01.925Z,93.40
2019-05-16T09:26:32.482Z,93.30
2019-05-16T09:29:03.185Z,93.10
2019-05-16T09:31:33.849Z,93.20
2019-05-16T09:34:04.257Z,93.20
2019-05-16T09:36:36.937Z,93.00
2019-05-16T09:39:08.692Z,92.80
2019-05-16T09:42:03.426Z,92.80
2019-05-16T09:44:11.264Z,92.60
2019-05-16T09:46:41.723Z,92.40
2019-05-16T09:49:19.591Z,92.40
2019-05-16T09:51:46.503Z,92.40
2019-05-16T09:54:16.907Z,91.80
2019-05-16T09:56:47.600Z,91.60
2019-05-16T09:59:18.086Z,91.70
2019-05-16T10:01:48.453Z,91.80
2019-05-16T10:04:18.911Z,91.60
2019-05-16T10:06:49.347Z,91.50
2019-05-16T10:09:19.927Z,91.20
2019-05-16T10:12:05.519Z,91.00
2019-05-16T10:14:22.461Z,90.90
2019-05-16T10:16:52.875Z,90.70
2019-05-16T10:19:23.318Z,90.70
2019-05-16T10:21:53.704Z,90.80
2019-05-16T10:24:26.704Z,90.90
2019-05-16T10:26:57.167Z,91.00
2019-05-16T10:29:27.810Z,90.80
2019-05-16T10:31:58.328Z,90.70
2019-05-16T10:34:29.018Z,90.70
2019-05-16T10:36:59.480Z,90.70
2019-05-16T10:39:29.902Z,90.50
2019-05-16T10:42:00.451Z,90.60
2019-05-16T10:44:30.934Z,90.60
2019-05-16T10:47:01.368Z,90.50
2019-05-16T10:49:37.763Z,90.40
2019-05-16T10:52:03.919Z,90.10
2019-05-16T10:54:36.811Z,90.00
2019-05-16T10:57:08.141Z,90.00
2019-05-16T10:59:57.744Z,90.00
2019-05-16T11:02:10.892Z,90.20
2019-05-16T11:04:53.838Z,90.30
2019-05-16T11:07:13.609Z,90.20
2019-05-16T11:09:55.739Z,90.20
2019-05-16T11:12:19.934Z,90.10
2019-05-16T11:14:49.401Z,89.70
2019-05-16T11:17:19.803Z,90.10
2019-05-16T11:19:50.501Z,90.10
2019-05-16T11:22:20.905Z,89.30
2019-05-16T11:24:51.420Z,89.40
2019-05-16T11:27:21.969Z,89.50
2019-05-16T11:29:52.427Z,89.40
2019-05-16T11:32:22.983Z,89.20
2019-05-16T11:34:53.428Z,88.10
2019-05-16T11:37:23.959Z,88.50
2019-05-16T11:39:54.478Z,88.80
2019-05-16T11:42:24.899Z,88.40
2019-05-16T11:44:57.923Z,88.20
2019-05-16T11:47:27.566Z,88.20
2019-05-16T11:49:58.030Z,88.50
2019-05-16T11:52:28.440Z,88.50
2019-05-16T11:54:59.807Z,88.50
2019-05-16T11:57:30.236Z,88.10
2019-05-16T12:00:00.664Z,87.60
2019-05-16T12:02:32.228Z,86.00
2019-05-16T12:05:02.685Z,86.10
2019-05-16T12:07:34.879Z,86.10
2019-05-16T12:10:07.622Z,85.90
2019-05-16T12:12:38.226Z,85.70
2019-05-16T12:15:10.307Z,85.70
2019-05-16T12:17:40.738Z,85.50
2019-05-16T12:20:11.369Z,84.00
2019-05-16T12:22:41.879Z,84.10
2019-05-16T12:25:12.615Z,83.80
2019-05-16T12:27:43.046Z,83.40
2019-05-16T12:30:17.432Z,83.40
2019-05-16T12:32:47.189Z,91.10
2019-05-16T12:35:17.933Z,90.20
2019-05-16T12:37:50.163Z,86.80
2019-05-16T12:40:20.394Z,87.90
2019-05-16T12:42:53.864Z,83.40
2019-05-16T12:45:23.088Z,80.40
2019-05-16T12:47:53.571Z,80.30
2019-05-16T12:50:28.189Z,80.10
2019-05-16T12:52:57.286Z,79.80
2019-05-16T12:55:27.805Z,79.30
2019-05-16T12:58:12.225Z,80.00
2019-05-16T13:00:30.425Z,80.50
2019-05-16T13:03:00.823Z,80.60
2019-05-16T13:05:31.282Z,80.90
2019-05-16T13:08:01.714Z,80.80
2019-05-16T13:10:32.074Z,80.40
2019-05-16T13:13:02.595Z,80.40
2019-05-16T13:15:32.949Z,80.30
2019-05-16T13:18:03.381Z,79.50
2019-05-16T13:20:33.833Z,79.90
2019-05-16T13:23:13.868Z,80.20
2019-05-16T13:25:36.932Z,80.40
2019-05-16T13:28:08.148Z,81.00
2019-05-16T13:30:39.034Z,81.60
2019-05-16T13:33:10.466Z,81.00
2019-05-16T13:35:40.999Z,81.80
2019-05-16T13:38:11.397Z,82.10
2019-05-16T13:40:41.899Z,81.70
2019-05-16T13:43:12.337Z,81.40
2019-05-16T13:45:42.775Z,81.40
2019-05-16T13:48:13.135Z,81.60
2019-05-16T13:50:43.531Z,81.70
2019-05-16T13:53:16.230Z,81.50
2019-05-16T13:55:46.052Z,81.40
2019-05-16T13:58:17.857Z,81.50
2019-05-16T14:00:48.510Z,81.40
2019-05-16T14:03:19.024Z,81.40
2019-05-16T14:05:49.470Z,81.70
2019-05-16T14:08:20.803Z,81.90
2019-05-16T14:10:51.483Z,81.90
2019-05-16T14:13:23.063Z,81.80
2019-05-16T14:15:53.620Z,81.60
2019-05-16T14:18:23.985Z,82.20
2019-05-16T14:20:54.365Z,82.20
2019-05-16T14:23:28.085Z,82.10
2019-05-16T14:26:08.569Z,81.70
2019-05-16T14:28:38.927Z,82.10
2019-05-16T14:31:09.414Z,82.30
2019-05-16T14:33:39.850Z,82.30
2019-05-16T14:36:11.350Z,82.10
2019-05-16T14:38:41.910Z,82.10
2019-05-16T14:41:12.406Z,81.80
2019-05-16T14:43:42.779Z,81.80
2019-05-16T14:46:13.256Z,81.60
2019-05-16T14:48:43.744Z,81.30
2019-05-16T14:51:17.825Z,81.20
2019-05-16T14:53:47.335Z,80.90
2019-05-16T14:56:17.800Z,81.50
2019-05-16T14:58:48.810Z,81.00
2019-05-16T15:01:19.384Z,81.10
2019-05-16T15:03:49.743Z,81.30
2019-05-16T15:06:20.206Z,80.40
2019-05-16T15:08:50.562Z,80.20
2019-05-16T15:11:20.984Z,80.00
2019-05-16T15:13:51.541Z,80.40
2019-05-16T15:16:21.935Z,80.50
2019-05-16T15:18:52.365Z,81.20
2019-05-16T15:21:23.821Z,81.40
2019-05-16T15:23:54.181Z,81.40
2019-05-16T15:26:26.850Z,81.00
2019-05-16T15:28:59.015Z,80.20
2019-05-16T15:31:28.842Z,80.90
2019-05-16T15:33:59.213Z,80.80
2019-05-16T15:36:29.598Z,80.80
2019-05-16T15:38:59.963Z,81.00
2019-05-16T15:41:30.407Z,81.20
2019-05-16T15:44:00.901Z,81.60
2019-05-16T15:46:31.392Z,82.30
2019-05-16T15:49:02.542Z,82.50
2019-05-16T15:51:33.824Z,82.90
2019-05-16T15:54:06.589Z,82.40
2019-05-16T15:56:38.066Z,81.90
2019-05-16T15:59:09.942Z,83.00
2019-05-16T16:01:40.868Z,82.00
2019-05-16T16:04:12.471Z,82.00
2019-05-16T16:06:43.510Z,82.10
2019-05-16T16:09:13.952Z,82.00
2019-05-16T16:11:44.534Z,82.00
2019-05-16T16:14:17.168Z,81.90
2019-05-16T16:16:47.522Z,82.50
2019-05-16T16:19:18.182Z,82.60
2019-05-16T16:21:49.090Z,82.30
2019-05-16T16:24:19.817Z,83.10
2019-05-16T16:26:50.433Z,82.80
2019-05-16T16:29:20.838Z,82.10
2019-05-16T16:31:51.335Z,81.50
2019-05-16T16:34:21.754Z,81.60
2019-05-16T16:36:52.555Z,81.70
2019-05-16T16:39:23.069Z,81.60
2019-05-16T16:41:53.451Z,81.40
2019-05-16T16:44:23.926Z,81.30
2019-05-16T16:46:54.349Z,81.20
2019-05-16T16:49:24.791Z,81.10
2019-05-16T16:51:57.216Z,81.30
2019-05-16T16:54:27.633Z,81.30
2019-05-16T16:56:58.106Z,81.40
2019-05-16T16:59:28.872Z,80.90
2019-05-16T17:01:59.951Z,80.80
2019-05-16T17:04:30.470Z,80.80
2019-05-16T17:07:01.087Z,81.30
2019-05-16T17:09:32.861Z,81.70
2019-05-16T17:12:03.275Z,81.70
2019-05-16T17:14:33.774Z,81.00
2019-05-16T17:17:04.170Z,81.00
2019-05-16T17:19:36.779Z,81.40
2019-05-16T17:22:16.982Z,81.60
2019-05-16T17:24:39.198Z,82.00
2019-05-16T17:27:09.713Z,82.40
2019-05-16T17:29:40.176Z,82.60
2019-05-16T17:32:10.594Z,81.90
2019-05-16T17:34:42.383Z,81.70
2019-05-16T17:37:12.750Z,82.10
2019-05-16T17:39:43.272Z,82.20
2019-05-16T17:42:14.005Z,82.70
2019-05-16T17:44:47.948Z,82.90
2019-05-16T17:47:18.832Z,82.80
2019-05-16T17:49:49.258Z,82.50
2019-05-16T17:52:19.886Z,82.20
2019-05-16T17:54:53.159Z,82.20
2019-05-16T17:57:22.481Z,82.20
2019-05-16T17:59:52.924Z,82.40
2019-05-16T18:02:23.443Z,82.40
2019-05-16T18:04:54.008Z,82.20
2019-05-16T18:07:24.758Z,82.20
2019-05-16T18:09:56.757Z,82.30
2019-05-16T18:12:27.634Z,82.30
2019-05-16T18:14:58.349Z,82.30
2019-05-16T18:17:28.903Z,82.20
2019-05-16T18:19:59.251Z,82.30
2019-05-16T18:22:48.762Z,82.30
2019-05-16T18:25:19.209Z,82.50
2019-05-16T18:27:50.098Z,83.30
2019-05-16T18:30:26.980Z,82.60
2019-05-16T18:32:56.735Z,82.70
2019-05-16T18:35:27.572Z,82.70
2019-05-16T18:37:57.992Z,82.70
2019-05-16T18:40:28.334Z,82.90
2019-05-16T18:43:01.161Z,83.30
2019-05-16T18:45:31.681Z,83.50
2019-05-16T18:48:02.187Z,83.60
2019-05-16T18:50:32.606Z,83.80
2019-05-16T18:53:03.158Z,84.00
2019-05-16T18:55:33.672Z,84.70
2019-05-16T18:58:07.472Z,84.70
2019-05-16T19:00:37.509Z,85.00
2019-05-16T19:03:08.533Z,85.00
2019-05-16T19:05:39.999Z,85.10
2019-05-16T19:08:10.535Z,85.60
2019-05-16T19:10:40.928Z,85.70
2019-05-16T19:13:12.518Z,86.20
2019-05-16T19:15:42.946Z,86.30
2019-05-16T19:18:13.497Z,86.70
2019-05-16T19:20:46.028Z,86.80
2019-05-16T19:23:17.503Z,87.10
2019-05-16T19:25:48.083Z,87.20
2019-05-16T19:28:18.669Z,87.40
2019-05-16T19:30:49.580Z,87.80
2019-05-16T19:33:20.084Z,88.20
2019-05-16T19:35:50.555Z,88.30
2019-05-16T19:38:21.165Z,88.30
2019-05-16T19:40:51.592Z,88.20
2019-05-16T19:43:22.094Z,88.10
2019-05-16T19:45:52.544Z,88.60
2019-05-16T19:48:23.104Z,89.30
2019-05-16T19:50:53.764Z,88.40
2019-05-16T19:53:26.903Z,88.50
2019-05-16T19:55:57.093Z,89.00
2019-05-16T19:58:27.562Z,89.30
2019-05-16T20:00:58.202Z,89.00
2019-05-16T20:03:28.684Z,88.90
2019-05-16T20:05:59.174Z,88.90
2019-05-16T20:08:29.654Z,88.80
2019-05-16T20:11:00.218Z,88.80
2019-05-16T20:13:30.746Z,88.80
2019-05-16T20:16:01.478Z,88.90
2019-05-16T20:18:32.029Z,89.10
2019-05-16T20:21:02.478Z,89.40
2019-05-16T20:23:32.993Z,89.60
2019-05-16T20:26:03.550Z,89.70
2019-05-16T20:28:34.043Z,89.80
2019-05-16T20:31:04.519Z,89.90
2019-05-16T20:33:37.444Z,90.00
2019-05-16T20:36:09.577Z,89.80
2019-05-16T20:38:39.624Z,89.90
2019-05-16T20:41:10.122Z,89.90
2019-05-16T20:43:40.637Z,90.00
2019-05-16T20:46:11.079Z,90.00
2019-05-16T20:48:41.663Z,90.10
2019-05-16T20:51:12.250Z,90.00
2019-05-16T20:53:42.862Z,90.00
2019-05-16T20:56:13.320Z,90.00
2019-05-16T20:58:43.935Z,90.10
2019-05-16T21:01:14.411Z,90.20
2019-05-16T21:04:03.907Z,90.20
2019-05-16T21:06:34.394Z,90.30
2019-05-16T21:09:06.731Z,90.40
2019-05-16T21:11:37.547Z,90.40
2019-05-16T21:14:08.070Z,90.50
2019-05-16T21:16:38.560Z,90.50
2019-05-16T21:19:09.191Z,90.50
2019-05-16T21:21:39.992Z,90.50
2019-05-16T21:24:10.546Z,90.60
2019-05-16T21:26:41.560Z,90.60
2019-05-16T21:29:12.043Z,90.60
2019-05-16T21:31:42.486Z,90.70
2019-05-16T21:34:12.949Z,90.70
2019-05-16T21:36:43.434Z,90.60
2019-05-16T21:39:13.897Z,90.70
2019-05-16T21:41:44.266Z,90.60
2019-05-16T21:44:16.942Z,90.60
2019-05-16T21:46:47.088Z,90.50
2019-05-16T21:49:19.644Z,90.50
2019-05-16T21:51:50.044Z,90.50
2019-05-16T21:54:20.438Z,90.50
2019-05-16T21:56:50.869Z,90.60
2019-05-16T21:59:21.249Z,90.60
2019-05-16T22:01:51.686Z,90.60
2019-05-16T22:04:22.215Z,90.70
2019-05-16T22:06:52.762Z,90.70
2019-05-16T22:09:23.271Z,90.80
2019-05-16T22:11:53.747Z,90.80
2019-05-16T22:14:29.169Z,90.80
2019-05-16T22:16:59.612Z,90.90
2019-05-16T22:19:29.973Z,90.80
2019-05-16T22:22:01.414Z,90.90
2019-05-16T22:24:31.930Z,90.90
2019-05-16T22:27:02.421Z,91.10
2019-05-16T22:29:32.879Z,91.00
2019-05-16T22:32:03.279Z,91.00
2019-05-16T22:34:33.716Z,91.00
2019-05-16T22:37:06.545Z,91.10
2019-05-16T22:39:37.189Z,91.00
2019-05-16T22:42:09.335Z,91.00
2019-05-16T22:44:39.871Z,91.00
2019-05-16T22:47:10.400Z,91.00
2019-05-16T22:49:41.009Z,91.00
2019-05-16T22:52:26.647Z,91.00
2019-05-16T22:54:57.036Z,91.00
2019-05-16T22:57:27.563Z,91.00
2019-05-16T22:59:58.116Z,91.00
2019-05-16T23:02:28.494Z,91.10
2019-05-16T23:04:58.953Z,91.10
2019-05-16T23:07:29.355Z,91.20
2019-05-16T23:09:59.837Z,91.20
2019-05-16T23:12:30.318Z,91.20
2019-05-16T23:15:00.860Z,91.40
2019-05-16T23:17:31.377Z,91.20
2019-05-16T23:20:01.841Z,91.20
2019-05-16T23:22:32.237Z,91.20
2019-05-16T23:25:02.779Z,91.30
2019-05-16T23:27:33.187Z,91.30
2019-05-16T23:30:03.553Z,91.30
2019-05-16T23:32:36.384Z,91.30
2019-05-16T23:35:06.980Z,91.40
2019-05-16T23:37:37.487Z,91.40
2019-05-16T23:40:08.283Z,91.40
2019-05-16T23:42:38.650Z,91.70
2019-05-16T23:45:09.541Z,91.40
2019-05-16T23:47:39.950Z,91.30
2019-05-16T23:50:10.534Z,91.30
2019-05-16T23:52:40.974Z,91.40
2019-05-16T23:55:11.641Z,91.40
2019-05-16T23:57:42.065Z,91.30
